METAR Data
IDs: Format: Raw Decoded Include TAF

Data at: 1021 UTC 18 Jan 2019

PAOU 180956Z AUTO 36024G28KT 6SM UP BR OVC006 02/01 A2970 RMK AO2 PK WND 36029/0919 UPE28B56 SLP059 P0000 T00170006 FZRANO
PAOU 180856Z AUTO 36021KT 8SM UP OVC008 02/01 A2970 RMK AO2 PK WND 36027/0827 UPE24B52RAB24E52 SLP056 P0000 60000 T00170011 400220000 53010 FZRANO
PAOU 180756Z AUTO 36019G25KT 7SM UP OVC008 02/01 A2969 RMK AO2 PK WND 36026/0744 UPB21 CIG 007V013 SLP053 P0000 T00220011 FZRANO
PAOU 180735Z AUTO 36020G25KT 7SM UP OVC008 02/01 A2968 RMK AO2 PK WND 36026/0717 UPB21 P0000 FZRANO
PAOU 180656Z AUTO 01020KT 8SM OVC010 02/02 A2968 RMK AO2 RAE04UPB04E52 CIG 008V014 SLP049 P0000 T00220017 FZRANO
PAOU 180614Z AUTO 36017KT 7SM UP OVC010 02/02 A2967 RMK AO2 RAE04UPB04 CIG 007V012 P0000 FZRANO
PAOU 180556Z AUTO 36015KT 7SM -RA OVC008 02/02 A2967 RMK AO2 UPE15B32E49RAB15E32B49 CIG 007V012 SLP046 P0001 60001 T00220017 10022 20006 55000 FZRANO
PAOU 180456Z AUTO 36016KT 6SM UP BR BKN008 OVC014 02/02 A2966 RMK AO2 CIG 006V011 SLP044 P0000 T00220017 FZRANO
PAOU 180431Z AUTO 35011KT 4SM UP BR OVC006 02/02 A2966 RMK AO2 CIG 003V007 P0000 FZRANO
PAOU 180356Z AUTO 36011KT 3SM UP BR OVC004 02/01 A2967 RMK AO2 UPE12B53 SLP046 P0000 T00170011 FZRANO
PAOU 180354Z AUTO 36010KT 2 1/2SM UP BR OVC004 02/01 A2967 RMK AO2 VIS 1 3/4V4 UPE12B53 P0000 FZRANO
PAOU 180339Z AUTO 36010KT 4SM BR OVC004 02/01 A2967 RMK AO2 UPE12 CIG 003V007 P0000 FZRANO
PAOU 180329Z AUTO 01012KT 6SM BR BKN006 OVC028 02/01 A2966 RMK AO2 UPE12 CIG 004V009 P0000 FZRANO
PAOU 180310Z AUTO 01011KT 3SM UP BR OVC004 02/01 A2966 RMK AO2 CIG 003V007 P0000 FZRANO
PAOU 180305Z AUTO 01011KT 1 3/4SM UP BR OVC004 02/01 A2966 RMK AO2 VIS 1V5 CIG 003V007 P0000 FZRANO
PAOU 180256Z AUTO 01012KT 1SM UP BR OVC004 02/01 A2966 RMK AO2 UPB18 SLP043 P0000 60000 T00170011 55000 FZRANO
PAOU 180230Z AUTO 34010KT 1 1/4SM UP BR OVC004 02/01 A2966 RMK AO2 UPB18 P0000 FZRANO
PAOU 180223Z AUTO 33010KT 1SM UP BR OVC006 01/01 A2966 RMK AO2 UPB18 P0000 FZRANO
PAOU 180215Z AUTO 34011KT 1 1/4SM BR OVC006 01/01 A2966 RMK AO2 FZRANO
PAOU 180207Z AUTO 34010KT 2SM BR OVC006 01/01 A2965 RMK AO2 VIS 1 1/2V4 FZRANO
PAOU 180156Z AUTO 33010KT 3SM BR OVC006 01/01 A2965 RMK AO2 SLP041 T00110006 FZRANO
PAOU 180137Z AUTO 34011KT 2 1/2SM BR OVC006 01/01 A2965 RMK AO2 VIS 2V4 FZRANO
PAOU 180121Z AUTO 33011KT 3SM BR OVC006 01/01 A2965 RMK AO2 CIG 004V009 FZRANO
PAOU 180056Z AUTO 34011KT 2 1/2SM BR OVC008 01/01 A2965 RMK AO2 VIS 1 1/2V4 UPE23 CIG 004V011 SLP040 P0000 T00110006 FZRANO
PAOU 180027Z AUTO 33012KT 2 1/2SM BR OVC006 01/01 A2966 RMK AO2 UPE23 CIG 004V010 P0000 FZRANO
PAOU 172356Z AUTO 33011KT 1 1/2SM UP BR OVC006 01/00 A2966 RMK AO2 UPB18E28B52 CIG 004V009 SLP043 P0000 60000 T00060000 10006 20006 58002 FZRANO
PAOU 172321Z AUTO 31012KT 1 1/2SM UP BR BKN008 OVC011 01/00 A2966 RMK AO2 VIS 1 1/4V3 UPB18 CIG 005V009 P0000 FZRANO
PAOU 172311Z AUTO 32010KT 2 1/2SM BR BKN008 OVC013 01/00 A2966 RMK AO2 VIS 2V5 FZRANO
PAOU 172256Z AUTO 32008KT 3SM BR BKN010 OVC015 01/00 A2967 RMK AO2 CIG 007V013 SLP046 T00060000 FZRANO
PAOU 172245Z AUTO 31009KT 4SM BR OVC010 01/00 A2967 RMK AO2 FZRANO
PAOU 172236Z AUTO 31010KT 2 1/2SM BR FEW006 BKN010 OVC015 01/00 A2967 RMK AO2 FZRANO
PAOU 172230Z AUTO 31008KT 3SM BR BKN006 OVC015 01/00 A2967 RMK AO2 CIG 004V010 FZRANO
PAOU 172211Z AUTO 31009KT 4SM BR FEW006 BKN015 01/00 A2966 RMK AO2 FZRANO
PAOU 172204Z AUTO 30010KT 4SM BR FEW008 BKN013 01/00 A2966 RMK AO2 FZRANO
PAOU 172156Z AUTO 30010KT 3SM BR FEW008 SCT013 01/00 A2966 RMK AO2 SLP043 T00060000 FZRANO
PAOU 172148Z AUTO 29013KT 5SM BR FEW011 01/00 A2965 RMK AO2 FZRANO
PAOU 172127Z AUTO 29011KT 4SM BR OVC011 01/00 A2966 RMK AO2 FZRANO
PAOU 172056Z AUTO 30011KT 2 1/2SM BR SCT006 OVC011 01/00 A2966 RMK AO2 VIS 1 3/4V3 UPB36E51 SLP045 P0000 60000 T00060000 51010 FZRANO
PAOU 172041Z AUTO 29010KT 1 1/2SM UP BR SCT006 OVC011 01/00 A2966 RMK AO2 UPB36 P0000 FZRANO
PAOU 172030Z AUTO 30009KT 2SM BR SCT006 OVC011 01/00 A2966 RMK AO2 VIS 1 1/4V3 FZRANO
PAOU 172026Z AUTO 29009KT 1 3/4SM BR OVC011 01/00 A2966 RMK AO2 VIS 1 1/4V3 CIG 006V014 FZRANO
PAOU 172004Z AUTO 28009KT 2SM BR BKN009 OVC019 01/00 A2966 RMK AO2 CIG 006V014 FZRANO
PAOU 171956Z AUTO 29009KT 3SM BR BKN011 OVC019 01/00 A2965 RMK AO2 CIG 007V013 SLP042 T00060000 FZRANO
PAOU 171951Z AUTO 29007KT 3SM BR BKN011 OVC019 01/00 A2965 RMK AO2 CIG 007V013 FZRANO
PAOU 171910Z AUTO 30009KT 4SM BR FEW006 OVC011 01/00 A2964 RMK AO2 FZRANO
PAOU 171856Z AUTO 29009KT 2SM BR BKN007 OVC012 01/00 A2963 RMK AO2 UPE11 CIG 005V010 SLP035 P0000 T00060000 FZRANO
PAOU 171854Z AUTO 29011KT 2SM BR BKN007 OVC012 01/00 A2963 RMK AO2 UPE11 CIG 005V010 P0000 FZRANO
PAOU 171846Z AUTO 29011KT 3SM BR BKN009 OVC016 01/00 A2963 RMK AO2 UPE11 CIG 005V013 P0000 FZRANO
PAOU 171839Z AUTO 29011KT 2 1/2SM BR BKN009 OVC016 01/00 A2963 RMK AO2 VIS 1 3/4V4 UPE11 CIG 005V011 P0000 FZRANO
PAOU 171834Z AUTO 29011KT 3SM BR SCT009 OVC016 01/00 A2963 RMK AO2 UPE11 P0000 FZRANO
PAOU 171806Z AUTO 28010KT 3SM UP BR FEW005 BKN012 OVC017 01/00 A2961 RMK AO2 P0000 FZRANO
PAOU 171804Z AUTO 28010KT 2 1/2SM UP BR SCT005 OVC015 01/00 A2961 RMK AO2 P0000 FZRANO
PAOU 171756Z AUTO 29009KT 3SM UP BR SCT007 BKN012 OVC019 01/00 A2961 RMK AO2 UPB07 SLP027 P0000 60000 T00060000 10006 20000 53018 FZRANO
PAOU 171733Z AUTO 28010KT 2 1/2SM UP BR FEW007 BKN014 OVC019 01/00 A2960 RMK AO2 UPB07 P0000 FZRANO
PAOU 171723Z AUTO 29010KT 4SM BR SCT007 OVC017 01/00 A2960 RMK AO2 UPB07E20 P0000 FZRANO
PAOU 171707Z AUTO 28008KT 2SM UP BR FEW005 SCT010 OVC013 01/00 A2960 RMK AO2 UPB07 P0000 FZRANO
PAOU 171656Z AUTO 27009KT 3SM BR OVC013 01/00 A2959 RMK AO2 SLP022 T00060000 FZRANO
PAOU 171613Z AUTO 27006KT 4SM BR SCT005 OVC013 01/00 A2957 RMK AO2 FZRANO
PAOU 171604Z AUTO 24006KT 5SM BR BKN005 BKN009 OVC013 01/00 A2957 RMK AO2 CIG 003V008 FZRANO
PAOU 171556Z AUTO 23006KT 5SM BR FEW004 OVC013 01/00 A2957 RMK AO2 SLP013 T00060000 FZRANO
PAOU 171535Z AUTO 23007KT 5SM BR SCT003 BKN008 OVC013 01/00 A2957 RMK AO2 CIG 007V010 FZRANO
PAOU 171507Z AUTO 23008KT 3SM BR BKN003 OVC009 01/00 A2956 RMK AO2 FZRANO
PAOU 171456Z AUTO 22008KT 2 1/2SM BR BKN003 OVC009 01/00 A2956 RMK AO2 UPE00 SLP009 P0000 60000 T00060000 51024 FZRANO
PAOU 171444Z AUTO 23007KT 3SM BR OVC007 01/00 A2955 RMK AO2 UPE00 CIG 001V010 P0000 FZRANO
PAOU 171436Z AUTO 23009KT 3SM BR BKN004 OVC007 01/00 A2955 RMK AO2 UPE00 CIG 001V006 P0000 FZRANO
PAOU 171421Z AUTO 24008KT 2 1/2SM BR BKN003 OVC008 01/00 A2954 RMK AO2 UPE00 CIG 001V006 P0000 FZRANO
PAOU 171356Z AUTO 24007KT 1 1/2SM UP BR OVC003 01/00 A2954 RMK AO2 RAB13E22UPB22 SLP002 P0000 T00060000 FZRANO
PAOU 171303Z AUTO 23009KT 1 3/4SM BR OVC003 01/00 A2952 RMK AO2 FZRANO
PAOU 171256Z AUTO 23007KT 2SM BR OVC003 01/00 A2952 RMK AO2 UPE53 SLP996 P0000 T00060000 FZRANO
PAOU 171203Z AUTO 24008KT 2 1/2SM UP BR OVC003 01/00 A2949 RMK AO2 P0000 FZRANO
PAOU 171156Z AUTO 24008KT 3SM UP BR OVC003 01/00 A2949 RMK AO2 UPB37 SLP986 P0000 60005 70013 T00060000 10006 20000 53022 FZRANO
PAOU 171056Z AUTO 22008KT 6SM BR OVC003 01/00 A2947 RMK AO2 UPE29 SLP979 P0000 T00060000 FZRANO
PAOU 170956Z AUTO 20009KT 3SM UP BR OVC003 00/M01 A2944 RMK AO2 SLP970 P0001 T00001006 FZRANO
PAOU 170938Z AUTO 21008KT 10SM UP BKN005 OVC009 00/M01 A2944 RMK AO2 CIG 003V008 P0000 FZRANO
PAOU 170918Z AUTO 22009KT 10SM UP BKN007 OVC020 00/M01 A2943 RMK AO2 CIG 005V013 P0000 FZRANO
PAOU 170856Z AUTO 20009KT 10SM UP FEW003 BKN020 OVC026 00/M01 A2942 RMK AO2 UPB24E28B50SNE24B28E50 SLP964 P0001 60004 T00001006 400220000 53016 FZRANO
PAOU 170849Z AUTO 20009KT 8SM -SN SCT003 BKN008 OVC015 00/M01 A2942 RMK AO2 UPB24E28SNE24B28 CIG 007V011 P0001 FZRANO
PAOU 170828Z AUTO 21009KT 6SM -SN BR BKN005 OVC010 00/M01 A2942 RMK AO2 UPB24E28SNE24B28 CIG 003V008 P0001 FZRANO
PAOU 170806Z AUTO 21008KT 4SM -SN BR SCT005 OVC010 00/M01 A2941 RMK AO2 P0001 FZRANO
PAOU 170756Z AUTO 22007KT 3SM -SN BR BKN005 OVC010 00/M01 A2940 RMK AO2 RAE13SNB13 SLP956 P0002 T00001006 FZRANO
PAOU 170750Z AUTO 22007KT 3SM -SN BR BKN005 OVC010 01/00 A2940 RMK AO2 RAE13SNB13 P0002 FZRANO
PAOU 170713Z AUTO 29006KT 5SM -SN BR SCT006 BKN012 OVC017 01/00 A2938 RMK AO2 RAE13SNB13 P0000 FZRANO
PAOU 170704Z AUTO 30004KT 4SM -RA BR BKN006 OVC016 01/00 A2938 RMK AO2 CIG 004V010 P0000 FZRANO
PAOU 170656Z AUTO 31005KT 5SM -RA BR SCT006 OVC018 01/00 A2938 RMK AO2 UPE47RAB0558E13B32 SLP948 P0001 T00060000 FZRANO
PAOU 170653Z AUTO 31005KT 5SM -RA BR SCT006 OVC018 01/00 A2938 RMK AO2 UPE47RAB0558E13B32 P0001 FZRANO
PAOU 170644Z AUTO 31007KT 5SM -RA BR SCT003 BKN008 OVC018 01/00 A2937 RMK AO2 UPE32RAB0558E13B32 P0001 FZRANO
PAOU 170608Z AUTO 33010KT 4SM -RA BR SCT003 OVC020 01/00 A2936 RMK AO2 UPE0558RAB0558 P0000 FZRANO
PAOU 170556Z AUTO 33009KT 4SM UP BR BKN003 OVC020 01/00 A2936 RMK AO2 UPB06E24B44RAB24E44SNE06 SLP941 P0001 60008 T00060000 10011 20006 53007 FZRANO
PAOU 170533Z AUTO 34011KT 5SM RA BR BKN003 OVC012 01/00 A2935 RMK AO2 UPB06E24RAB24SNE06 P0000 FZRANO
PAOU 170519Z AUTO 33010KT 3SM UP BR FEW003 OVC014 01/00 A2935 RMK AO2 UPB06SNE06 P0000 FZRANO
PAOU 170511Z AUTO 33010KT 2 1/2SM UP BR FEW003 OVC014 01/00 A2935 RMK AO2 UPB06SNE06 P0000 FZRANO
PAOU 170456Z AUTO 34010KT 2 1/2SM -SN BR BKN016 OVC021 01/00 A2935 RMK AO2 UPE53SNB18E28B53 SLP937 P0002 T00060000 FZRANO
PAOU 170445Z AUTO 35011KT 2 1/2SM UP BR FEW003 OVC016 01/00 A2935 RMK AO2 SNB18E28 P0001 FZRANO
PAOU 170436Z AUTO 35013KT 3SM UP BR FEW003 BKN018 OVC023 01/00 A2934 RMK AO2 SNB18E28 P0001 FZRANO
PAOU 170408Z AUTO 35014KT 4SM UP BR OVC003 01/00 A2933 RMK AO2 P0000 FZRANO
PAOU 170356Z AUTO 35013KT 4SM UP BR BKN005 OVC009 01/00 A2933 RMK AO2 RAE23UPB23 SLP933 P0001 T00060000 FZRANO
PAOU 170311Z AUTO 35011KT 4SM -RA BR BKN005 OVC010 01/00 A2933 RMK AO2 P0000 FZRANO
PAOU 170256Z AUTO 34010KT 3SM -RA BR BKN003 BKN010 OVC013 01/00 A2934 RMK AO2 UPB32E36B54E55RAB55SNE32B36E54 SLP934 P0001 60004 T00060000 56001 FZRANO
PAOU 170247Z AUTO 34009KT 1 3/4SM -SN BR BKN003 OVC016 01/00 A2933 RMK AO2 UPB32E36SNE32B36 P0000 FZRANO
PAOU 170235Z AUTO 34010KT 2 1/2SM UP BR OVC003 01/00 A2934 RMK AO2 UPB32SNE32 P0000 FZRANO
PAOU 170156Z AUTO 35010KT 1 1/2SM -SN BR BKN003 OVC010 01/00 A2934 RMK AO2 UPE11SNB11 SLP935 P0002 T00060000 FZRANO
PAOU 170112Z AUTO 34009KT 1 3/4SM -SN BR BKN003 OVC014 01/00 A2934 RMK AO2 UPE11SNB11 P0001 FZRANO
PAOU 170056Z AUTO 35010KT 3SM UP BR BKN003 OVC017 01/00 A2934 RMK AO2 RAE10UPB10E27B46SNB27E46 SLP935 P0001 T00060000 FZRANO
PAOU 170036Z AUTO 35008KT 2 1/2SM -SN BR BKN003 OVC017 01/00 A2934 RMK AO2 RAE10UPB10E27SNB27 P0001 FZRANO
PAOU 170026Z AUTO 35010KT 3SM UP BR BKN003 OVC008 01/01 A2934 RMK AO2 RAE10UPB10 P0001 FZRANO
PAOU 170004Z AUTO 36008KT 2 1/2SM -RA BR BKN003 BKN007 OVC013 01/01 A2935 RMK AO2 P0000 FZRANO
PAOU 162356Z AUTO 36010KT 2SM -RA BR BKN005 BKN008 OVC013 01/01 A2935 RMK AO2 UPE10RAB10 CIG 003V006 SLP938 P0000 60000 T00110006 10017 20011 58009 FZRANO
PAOU 162340Z AUTO 36009KT 1 3/4SM -RA BR OVC005 01/01 A2935 RMK AO2 UPE10RAB10 CIG 003V010 P0000 FZRANO
PAOU 162305Z AUTO 35008KT 1 3/4SM UP BR BKN007 OVC011 01/01 A2936 RMK AO2 CIG 004V010 P0000 FZRANO
PAOU 162256Z AUTO 36009KT 2 1/2SM UP BR BKN005 OVC009 01/01 A2936 RMK AO2 UPB18 CIG 003V008 SLP943 P0000 T00110006 FZRANO
PAOU 162243Z AUTO 01008KT 1 1/2SM UP BR OVC005 02/01 A2937 RMK AO2 UPB18 CIG 003V008 P0000 FZRANO
PAOU 162233Z AUTO 01008KT 1 1/2SM UP BR BKN003 OVC008 02/01 A2937 RMK AO2 UPB18 P0000 FZRANO
PAOU 162226Z AUTO 36009KT 1 1/2SM UP BR SCT003 OVC008 02/01 A2937 RMK AO2 UPB18 CIG 006V011 P0000 FZRANO